createdAt,value
2022-07-27T00:01:07.711Z,14.10
2022-07-27T00:03:35.908Z,14.00
2022-07-27T00:06:04.043Z,14.00
2022-07-27T00:08:32.260Z,14.00
2022-07-27T00:11:00.383Z,14.00
2022-07-27T00:13:28.598Z,14.00
2022-07-27T00:15:56.797Z,13.90
2022-07-27T00:18:26.364Z,13.90
2022-07-27T00:20:54.500Z,13.80
2022-07-27T00:23:22.649Z,13.90
2022-07-27T00:25:50.788Z,13.80
2022-07-27T00:28:18.918Z,13.80
2022-07-27T00:30:47.279Z,13.80
2022-07-27T00:33:17.373Z,13.80
2022-07-27T00:35:47.160Z,13.80
2022-07-27T00:38:16.669Z,13.70
2022-07-27T00:40:45.273Z,13.70
2022-07-27T00:43:13.739Z,13.70
2022-07-27T00:45:41.955Z,13.70
2022-07-27T00:48:10.107Z,13.70
2022-07-27T00:50:38.687Z,13.60
2022-07-27T00:53:08.670Z,13.60
2022-07-27T00:55:36.873Z,13.60
2022-07-27T00:58:06.109Z,13.60
2022-07-27T01:00:34.276Z,13.60
2022-07-27T01:03:08.702Z,13.60
2022-07-27T01:05:42.607Z,13.60
2022-07-27T01:08:14.133Z,13.50
2022-07-27T01:10:43.078Z,13.50
2022-07-27T01:13:13.101Z,13.50
2022-07-27T01:15:42.241Z,13.50
2022-07-27T01:18:12.457Z,13.50
2022-07-27T01:20:41.318Z,13.50
2022-07-27T01:23:11.078Z,13.50
2022-07-27T01:25:41.498Z,13.50
2022-07-27T01:28:09.610Z,13.50
2022-07-27T01:30:37.771Z,13.40
2022-07-27T01:33:06.437Z,13.40
2022-07-27T01:35:34.668Z,13.40
2022-07-27T01:38:02.805Z,13.40
2022-07-27T01:40:32.306Z,13.30
2022-07-27T01:43:00.476Z,13.20
2022-07-27T01:45:28.791Z,13.30
2022-07-27T01:47:56.931Z,13.20
2022-07-27T01:50:25.089Z,13.20
2022-07-27T01:52:53.201Z,13.10
2022-07-27T01:55:21.455Z,13.10
2022-07-27T01:57:50.939Z,13.10
2022-07-27T02:00:19.273Z,13.10
2022-07-27T02:02:47.424Z,13.00
2022-07-27T02:05:15.613Z,12.90
2022-07-27T02:07:43.768Z,12.90
2022-07-27T02:10:12.069Z,12.80
2022-07-27T02:12:39.818Z,12.60
2022-07-27T02:15:14.853Z,12.60
2022-07-27T02:17:45.056Z,12.50
2022-07-27T02:20:14.371Z,12.50
2022-07-27T02:22:42.564Z,12.40
2022-07-27T02:25:11.050Z,12.40
2022-07-27T02:27:39.228Z,12.40
2022-07-27T02:30:09.996Z,12.30
2022-07-27T02:32:38.147Z,12.30
2022-07-27T02:35:18.640Z,12.20
2022-07-27T02:37:48.786Z,12.30
2022-07-27T02:40:18.112Z,12.20
2022-07-27T02:42:46.477Z,12.20
2022-07-27T02:45:16.017Z,12.20
2022-07-27T02:47:44.155Z,12.20
2022-07-27T02:50:12.426Z,12.20
2022-07-27T02:52:40.597Z,12.20
2022-07-27T02:55:09.633Z,12.20
2022-07-27T02:57:40.915Z,12.30
2022-07-27T03:00:10.412Z,12.20
2022-07-27T03:02:39.908Z,12.20
2022-07-27T03:05:09.001Z,12.20
2022-07-27T03:07:37.162Z,12.10
2022-07-27T03:10:06.166Z,12.10
2022-07-27T03:12:34.318Z,12.10
2022-07-27T03:15:02.474Z,12.10
2022-07-27T03:17:30.605Z,12.20
2022-07-27T03:20:00.116Z,12.20
2022-07-27T03:22:30.930Z,12.30
2022-07-27T03:24:59.164Z,12.20
2022-07-27T03:27:27.339Z,12.10
2022-07-27T03:29:55.502Z,12.20
2022-07-27T03:32:23.627Z,12.30
2022-07-27T03:34:51.802Z,12.30
2022-07-27T03:37:21.280Z,12.30
2022-07-27T03:39:49.430Z,12.30
2022-07-27T03:42:17.571Z,12.30
2022-07-27T03:44:45.720Z,12.40
2022-07-27T03:47:13.829Z,12.40
2022-07-27T03:49:42.365Z,12.40
2022-07-27T03:52:14.329Z,12.50
2022-07-27T03:54:46.865Z,12.40
2022-07-27T03:57:15.066Z,12.50
2022-07-27T03:59:43.219Z,12.40
2022-07-27T04:02:11.432Z,12.50
2022-07-27T04:04:39.667Z,12.60
2022-07-27T04:07:07.867Z,12.50
2022-07-27T04:09:37.913Z,12.60
2022-07-27T04:12:09.683Z,12.60
2022-07-27T04:14:37.839Z,12.60
2022-07-27T04:17:06.085Z,12.60
2022-07-27T04:19:34.314Z,12.60
2022-07-27T04:22:02.434Z,12.60
2022-07-27T04:24:30.632Z,12.60
2022-07-27T04:26:58.747Z,12.70
2022-07-27T04:29:28.280Z,12.70
2022-07-27T04:31:56.409Z,12.70
2022-07-27T04:34:24.558Z,12.90
2022-07-27T04:36:52.695Z,13.00
2022-07-27T04:39:20.844Z,13.00
2022-07-27T04:41:48.964Z,13.10
2022-07-27T04:44:17.107Z,13.10
2022-07-27T04:46:46.590Z,13.20
2022-07-27T04:49:15.057Z,13.30
2022-07-27T04:51:44.626Z,13.30
2022-07-27T04:54:12.891Z,13.40
2022-07-27T04:56:41.007Z,13.30
2022-07-27T04:59:09.318Z,13.40
2022-07-27T05:01:37.690Z,13.40
2022-07-27T05:04:07.346Z,13.40
2022-07-27T05:06:35.532Z,13.40
2022-07-27T05:09:03.709Z,13.40
2022-07-27T05:11:31.873Z,13.40
2022-07-27T05:13:59.999Z,13.50
2022-07-27T05:16:29.070Z,13.50
2022-07-27T05:18:57.788Z,13.60
2022-07-27T05:21:29.294Z,13.60
2022-07-27T05:23:57.460Z,13.50
2022-07-27T05:26:25.578Z,13.70
2022-07-27T05:28:53.753Z,13.80
2022-07-27T05:31:21.969Z,13.90
2022-07-27T05:33:58.140Z,14.10
2022-07-27T05:36:28.112Z,14.20
2022-07-27T05:38:56.347Z,14.30
2022-07-27T05:41:24.921Z,14.30
2022-07-27T05:43:54.524Z,14.50
2022-07-27T05:46:22.785Z,14.70
2022-07-27T05:48:51.164Z,14.90
2022-07-27T05:51:19.325Z,15.00
2022-07-27T05:53:48.823Z,15.00
2022-07-27T05:56:16.976Z,15.10
2022-07-27T05:58:45.085Z,15.10
2022-07-27T06:01:13.326Z,14.90
2022-07-27T06:03:41.565Z,15.10
2022-07-27T06:06:27.263Z,15.10
2022-07-27T06:08:56.786Z,15.30
2022-07-27T06:11:24.928Z,15.40
2022-07-27T06:13:53.193Z,15.40
2022-07-27T06:16:22.661Z,15.40
2022-07-27T06:18:50.823Z,15.70
2022-07-27T06:21:18.988Z,15.80
2022-07-27T06:23:48.475Z,15.70
2022-07-27T06:26:18.050Z,15.80
2022-07-27T06:28:46.860Z,16.00
2022-07-27T06:31:15.129Z,16.10
2022-07-27T06:33:45.365Z,16.10
2022-07-27T06:36:16.459Z,16.00
2022-07-27T06:38:44.604Z,16.20
2022-07-27T06:41:12.772Z,16.30
2022-07-27T06:43:42.274Z,16.50
2022-07-27T06:46:12.802Z,16.90
2022-07-27T06:48:41.101Z,17.10
2022-07-27T06:51:09.339Z,17.40
2022-07-27T06:53:37.583Z,17.60
2022-07-27T06:56:08.477Z,17.60
2022-07-27T06:58:37.651Z,17.40
2022-07-27T07:01:07.260Z,17.60
2022-07-27T07:03:35.534Z,17.70
2022-07-27T07:06:03.872Z,17.80
2022-07-27T07:08:32.049Z,18.00
2022-07-27T07:11:00.230Z,18.20
2022-07-27T07:13:28.573Z,18.50
2022-07-27T07:15:56.883Z,18.70
2022-07-27T07:18:26.445Z,18.70
2022-07-27T07:20:54.631Z,18.80
2022-07-27T07:23:22.784Z,19.10
2022-07-27T07:25:50.950Z,19.30
2022-07-27T07:28:22.206Z,19.80
2022-07-27T07:30:50.471Z,20.10
2022-07-27T07:33:18.629Z,20.20
2022-07-27T07:36:12.684Z,20.40
2022-07-27T07:38:36.396Z,20.90
2022-07-27T07:41:05.826Z,20.90
2022-07-27T07:43:35.683Z,20.90
2022-07-27T07:46:04.022Z,21.10
2022-07-27T07:48:32.345Z,21.40
2022-07-27T07:51:01.950Z,21.70
2022-07-27T07:53:30.082Z,21.60
2022-07-27T07:56:00.059Z,21.70
2022-07-27T07:58:28.547Z,21.70
2022-07-27T08:00:56.747Z,21.90
2022-07-27T08:03:24.997Z,21.70
2022-07-27T08:05:53.225Z,21.90
2022-07-27T08:08:24.286Z,22.10
2022-07-27T08:10:53.101Z,22.20
2022-07-27T08:13:22.499Z,22.30
2022-07-27T08:15:51.554Z,22.20
2022-07-27T08:18:20.123Z,22.30
2022-07-27T08:20:48.319Z,22.00
2022-07-27T08:23:16.487Z,22.20
2022-07-27T08:25:46.038Z,22.00
2022-07-27T08:28:14.201Z,21.70
2022-07-27T08:30:42.435Z,21.20
2022-07-27T08:33:11.493Z,21.00
2022-07-27T08:35:39.668Z,21.00
2022-07-27T08:38:09.502Z,20.90
2022-07-27T08:40:42.045Z,20.70
2022-07-27T08:43:21.526Z,20.70
2022-07-27T08:45:56.453Z,20.80
2022-07-27T08:48:25.237Z,20.90
2022-07-27T08:50:53.443Z,21.00
2022-07-27T08:53:22.215Z,21.00
2022-07-27T08:55:50.451Z,20.80
2022-07-27T08:58:19.955Z,20.90
2022-07-27T09:00:50.011Z,20.80
2022-07-27T09:03:20.838Z,20.60
2022-07-27T09:05:50.482Z,20.60
2022-07-27T09:08:21.586Z,20.70
2022-07-27T09:10:49.864Z,21.00
2022-07-27T09:13:20.664Z,21.10
2022-07-27T09:16:16.466Z,20.90
2022-07-27T09:18:38.111Z,20.40
2022-07-27T09:21:19.316Z,20.40
2022-07-27T09:23:49.290Z,20.40
2022-07-27T09:26:31.672Z,20.20
2022-07-27T09:29:02.602Z,20.20
2022-07-27T09:31:31.307Z,20.00
2022-07-27T09:34:00.340Z,20.00
2022-07-27T09:36:29.323Z,20.00
2022-07-27T09:39:02.560Z,20.10
2022-07-27T09:41:40.508Z,19.90
2022-07-27T09:46:58.373Z,19.90
2022-07-27T09:49:30.914Z,19.60
2022-07-27T09:52:01.412Z,19.80
2022-07-27T09:54:42.235Z,19.60
2022-07-27T09:57:10.699Z,19.60
2022-07-27T09:59:41.221Z,19.80
2022-07-27T10:02:09.431Z,19.90
2022-07-27T10:04:37.768Z,20.40
2022-07-27T10:07:10.620Z,20.40
2022-07-27T10:09:41.486Z,20.10
2022-07-27T10:12:10.408Z,20.60
2022-07-27T10:14:39.930Z,20.60
2022-07-27T10:17:08.138Z,21.20
2022-07-27T10:19:43.104Z,21.20
2022-07-27T10:22:11.263Z,21.50
2022-07-27T10:24:39.444Z,21.80
2022-07-27T10:27:21.194Z,22.30
2022-07-27T10:29:51.000Z,22.00
2022-07-27T10:32:24.838Z,21.80
2022-07-27T10:34:53.015Z,21.60
2022-07-27T10:37:26.208Z,21.60
2022-07-27T10:40:16.117Z,21.50
2022-07-27T10:42:44.331Z,20.90
2022-07-27T10:45:14.188Z,20.90
2022-07-27T10:47:44.726Z,20.90
2022-07-27T10:50:31.226Z,20.70
2022-07-27T10:53:04.899Z,20.90
2022-07-27T10:55:49.269Z,20.80
2022-07-27T10:58:48.760Z,20.80
2022-07-27T11:01:18.891Z,21.00
2022-07-27T11:03:59.367Z,20.90
2022-07-27T11:06:34.036Z,21.00
2022-07-27T11:11:54.309Z,22.00
2022-07-27T11:14:30.466Z,21.80
2022-07-27T11:17:47.328Z,21.50
2022-07-27T11:19:53.719Z,21.80
2022-07-27T11:22:53.661Z,21.70
2022-07-27T11:25:19.087Z,21.70
2022-07-27T11:27:48.695Z,21.60
2022-07-27T11:30:23.631Z,21.60
2022-07-27T11:32:53.753Z,21.50
2022-07-27T11:35:22.165Z,21.80
2022-07-27T11:38:00.396Z,22.00
2022-07-27T11:40:56.219Z,21.70
2022-07-27T11:43:35.369Z,21.80
2022-07-27T11:46:15.858Z,21.80
2022-07-27T11:49:06.627Z,22.00
2022-07-27T11:51:35.939Z,22.00
2022-07-27T11:54:04.816Z,22.00
2022-07-27T11:56:34.233Z,22.20
2022-07-27T11:59:07.681Z,22.10
2022-07-27T12:01:37.834Z,21.80
2022-07-27T12:04:09.280Z,22.30
2022-07-27T12:06:38.936Z,22.20
2022-07-27T12:09:08.032Z,21.70
2022-07-27T12:11:54.719Z,21.90
2022-07-27T12:14:37.192Z,21.80
2022-07-27T12:17:19.178Z,22.20
2022-07-27T12:20:05.675Z,22.40
2022-07-27T12:22:37.038Z,22.10
2022-07-27T12:25:09.954Z,22.30
2022-07-27T12:27:54.681Z,22.60
2022-07-27T12:30:32.338Z,22.90
2022-07-27T12:33:00.753Z,23.50
2022-07-27T12:35:36.272Z,23.10
2022-07-27T12:38:06.893Z,23.00
2022-07-27T12:40:35.529Z,22.90
2022-07-27T12:43:05.021Z,22.80
2022-07-27T12:45:34.685Z,23.20
2022-07-27T12:48:10.277Z,23.50
2022-07-27T12:50:40.142Z,23.70
2022-07-27T12:53:08.300Z,23.80
2022-07-27T12:55:36.606Z,23.80
2022-07-27T12:58:04.807Z,23.30
2022-07-27T13:00:34.193Z,23.40
2022-07-27T13:03:03.295Z,23.10
2022-07-27T13:05:31.749Z,22.70
2022-07-27T13:08:01.278Z,22.90
2022-07-27T13:10:29.477Z,22.90
2022-07-27T13:12:57.636Z,22.70
2022-07-27T13:15:25.929Z,22.70
2022-07-27T13:17:54.101Z,22.70
2022-07-27T13:20:22.284Z,22.90
2022-07-27T13:22:50.432Z,22.90
2022-07-27T13:25:19.976Z,22.90
2022-07-27T13:27:48.436Z,23.30
2022-07-27T13:30:17.334Z,23.50
2022-07-27T13:32:46.926Z,23.30
2022-07-27T13:35:16.705Z,23.70
2022-07-27T13:37:45.459Z,23.60
2022-07-27T13:40:13.759Z,23.70
2022-07-27T13:42:43.322Z,23.90
2022-07-27T13:45:12.367Z,23.80
2022-07-27T13:47:40.870Z,23.80
2022-07-27T13:50:17.014Z,23.50
2022-07-27T13:52:46.103Z,23.30
2022-07-27T13:55:14.906Z,23.40
2022-07-27T13:57:44.446Z,23.50
2022-07-27T14:00:13.518Z,23.50
2022-07-27T14:02:41.957Z,23.50
2022-07-27T14:05:12.900Z,23.80
2022-07-27T14:07:42.479Z,23.70
2022-07-27T14:10:29.460Z,23.60
2022-07-27T14:13:07.355Z,23.60
2022-07-27T14:15:50.678Z,23.40
2022-07-27T14:18:24.113Z,23.20
2022-07-27T14:20:52.358Z,23.10
2022-07-27T14:23:21.190Z,23.50
2022-07-27T14:25:49.388Z,23.70
2022-07-27T14:28:19.046Z,23.70
2022-07-27T14:30:47.337Z,23.70
2022-07-27T14:33:15.573Z,23.50
2022-07-27T14:35:43.827Z,23.40
2022-07-27T14:38:12.076Z,23.30
2022-07-27T14:40:40.649Z,23.00
2022-07-27T14:43:08.830Z,23.20
2022-07-27T14:45:45.548Z,23.10
2022-07-27T14:48:21.492Z,23.10
2022-07-27T14:50:56.700Z,23.30
2022-07-27T14:53:24.843Z,23.30
2022-07-27T14:55:53.024Z,22.90
2022-07-27T14:58:21.182Z,22.90
2022-07-27T15:00:50.757Z,23.30
2022-07-27T15:03:19.927Z,23.10
2022-07-27T15:05:50.158Z,23.30
2022-07-27T15:08:20.074Z,23.10
2022-07-27T15:10:48.748Z,22.90
2022-07-27T15:13:17.169Z,22.70
2022-07-27T15:15:45.383Z,22.90
2022-07-27T15:18:14.895Z,22.80
2022-07-27T15:20:43.072Z,22.50
2022-07-27T15:23:11.182Z,22.50
2022-07-27T15:25:39.370Z,22.60
2022-07-27T15:28:07.896Z,22.50
2022-07-27T15:30:38.682Z,22.40
2022-07-27T15:33:07.191Z,22.30
2022-07-27T15:35:36.750Z,22.30
2022-07-27T15:38:04.933Z,22.40
2022-07-27T15:40:38.874Z,22.60
2022-07-27T15:43:07.876Z,22.40
2022-07-27T15:45:38.580Z,22.50
2022-07-27T15:48:08.464Z,22.70
2022-07-27T15:50:38.013Z,22.70
2022-07-27T15:53:06.872Z,22.70
2022-07-27T15:55:35.099Z,22.60
2022-07-27T15:58:03.453Z,22.60
2022-07-27T16:00:36.955Z,22.60
2022-07-27T16:03:07.552Z,22.60
2022-07-27T16:05:37.191Z,22.60
2022-07-27T16:08:05.980Z,22.60
2022-07-27T16:10:34.205Z,22.20
2022-07-27T16:13:02.975Z,22.40
2022-07-27T16:15:48.665Z,22.40
2022-07-27T16:18:16.847Z,22.50
2022-07-27T16:20:46.388Z,22.40
2022-07-27T16:23:18.842Z,22.60
2022-07-27T16:26:07.596Z,22.60
2022-07-27T16:28:39.455Z,22.80
2022-07-27T16:31:08.268Z,22.90
2022-07-27T16:33:36.438Z,22.70
2022-07-27T16:36:08.237Z,22.60
2022-07-27T16:38:36.902Z,22.60
2022-07-27T16:41:07.522Z,22.40
2022-07-27T16:43:38.917Z,22.40
2022-07-27T16:46:08.568Z,22.30
2022-07-27T16:48:42.208Z,22.30
2022-07-27T16:51:12.994Z,22.30
2022-07-27T16:53:42.319Z,22.30
2022-07-27T16:56:10.583Z,22.30
2022-07-27T16:58:38.730Z,22.20
2022-07-27T17:01:07.063Z,22.10
2022-07-27T17:03:35.293Z,22.10
2022-07-27T17:06:06.581Z,22.10
2022-07-27T17:08:36.770Z,22.10
2022-07-27T17:11:05.393Z,22.10
2022-07-27T17:13:34.984Z,22.00
2022-07-27T17:16:03.506Z,22.00
2022-07-27T17:18:37.238Z,22.00
2022-07-27T17:21:09.615Z,22.00
2022-07-27T17:23:39.823Z,22.10
2022-07-27T17:26:08.941Z,22.00
2022-07-27T17:28:39.510Z,21.90
2022-07-27T17:31:09.248Z,21.80
2022-07-27T17:33:37.523Z,21.70
2022-07-27T17:36:10.879Z,21.60
2022-07-27T17:38:44.227Z,21.50
2022-07-27T17:41:12.486Z,21.50
2022-07-27T17:43:40.740Z,21.50
2022-07-27T17:46:09.340Z,21.40
2022-07-27T17:48:37.910Z,21.30
2022-07-27T17:51:06.445Z,21.20
2022-07-27T17:53:34.595Z,21.00
2022-07-27T17:56:04.814Z,20.90
2022-07-27T17:58:32.952Z,20.70
2022-07-27T18:01:01.114Z,20.60
2022-07-27T18:03:29.266Z,20.60
2022-07-27T18:05:57.514Z,20.50
2022-07-27T18:08:25.648Z,20.50
2022-07-27T18:10:53.792Z,20.40
2022-07-27T18:13:23.283Z,20.40
2022-07-27T18:16:08.084Z,20.30
2022-07-27T18:18:37.218Z,20.30
2022-07-27T18:21:05.622Z,20.30
2022-07-27T18:23:33.958Z,20.20
2022-07-27T18:26:02.176Z,20.20
2022-07-27T18:28:37.329Z,20.20
2022-07-27T18:31:07.874Z,20.10
2022-07-27T18:33:37.082Z,20.10
2022-07-27T18:36:06.519Z,19.90
2022-07-27T18:38:34.754Z,19.80
2022-07-27T18:41:03.101Z,19.70
2022-07-27T18:43:32.630Z,19.60
2022-07-27T18:46:00.856Z,19.50
2022-07-27T18:48:29.334Z,19.50
2022-07-27T18:50:57.481Z,19.40
2022-07-27T18:53:25.637Z,19.30
2022-07-27T18:55:56.536Z,19.20
2022-07-27T18:58:25.834Z,19.10
2022-07-27T19:00:55.740Z,19.00
2022-07-27T19:03:24.711Z,18.90
2022-07-27T19:05:56.142Z,18.90
2022-07-27T19:08:24.324Z,18.80
2022-07-27T19:10:52.523Z,18.70
2022-07-27T19:13:21.204Z,18.60
2022-07-27T19:15:49.401Z,18.50
2022-07-27T19:18:19.064Z,18.40
2022-07-27T19:20:47.696Z,18.30
2022-07-27T19:23:15.829Z,18.20
2022-07-27T19:25:45.352Z,18.20
2022-07-27T19:28:15.863Z,18.00
2022-07-27T19:30:44.106Z,18.00
2022-07-27T19:33:12.257Z,17.90
2022-07-27T19:35:41.770Z,17.80
2022-07-27T19:38:10.654Z,17.70
2022-07-27T19:40:44.755Z,17.60
2022-07-27T19:43:13.371Z,17.50
2022-07-27T19:45:41.588Z,17.50
2022-07-27T19:48:09.850Z,17.40
2022-07-27T19:50:38.173Z,17.30
2022-07-27T19:53:07.646Z,17.20
2022-07-27T19:55:35.928Z,17.20
2022-07-27T19:58:04.078Z,17.10
2022-07-27T20:00:32.456Z,17.10
2022-07-27T20:03:00.607Z,17.00
2022-07-27T20:05:28.954Z,16.80
2022-07-27T20:07:57.091Z,16.80
2022-07-27T20:10:26.634Z,16.70
2022-07-27T20:12:54.774Z,16.60
2022-07-27T20:15:22.939Z,16.50
2022-07-27T20:17:51.268Z,16.40
2022-07-27T20:20:19.696Z,16.40
2022-07-27T20:22:47.818Z,16.30
2022-07-27T20:25:16.017Z,16.30
2022-07-27T20:27:45.695Z,16.20
2022-07-27T20:30:16.302Z,16.10
2022-07-27T20:32:44.502Z,16.10
2022-07-27T20:35:12.750Z,16.00
2022-07-27T20:37:41.239Z,15.90
2022-07-27T20:40:11.543Z,15.90
2022-07-27T20:42:40.278Z,15.90
2022-07-27T20:45:12.825Z,15.80
2022-07-27T20:47:41.164Z,15.70
2022-07-27T20:50:09.879Z,15.60
2022-07-27T20:52:38.054Z,15.60
2022-07-27T20:55:07.199Z,15.50
2022-07-27T20:57:35.321Z,15.40
2022-07-27T21:00:03.625Z,15.40
2022-07-27T21:02:33.292Z,15.30
2022-07-27T21:05:01.599Z,15.30
2022-07-27T21:07:29.756Z,15.20
2022-07-27T21:09:57.844Z,15.20
2022-07-27T21:12:25.990Z,15.20
2022-07-27T21:14:54.317Z,15.10
2022-07-27T21:17:23.561Z,15.10
2022-07-27T21:19:53.441Z,15.00
2022-07-27T21:22:21.601Z,15.00
2022-07-27T21:24:50.260Z,14.90
2022-07-27T21:27:21.282Z,14.90
2022-07-27T21:29:49.999Z,14.90
2022-07-27T21:32:18.187Z,14.80
2022-07-27T21:34:46.316Z,14.80
2022-07-27T21:37:15.872Z,14.70
2022-07-27T21:39:45.812Z,14.70
2022-07-27T21:42:14.022Z,14.60
2022-07-27T21:44:42.152Z,14.60
2022-07-27T21:47:13.934Z,14.60
2022-07-27T21:49:42.651Z,14.50
2022-07-27T21:52:11.372Z,14.50
2022-07-27T21:54:41.198Z,14.40
2022-07-27T21:57:09.341Z,14.30
2022-07-27T21:59:37.480Z,14.20
2022-07-27T22:02:05.633Z,14.10
2022-07-27T22:04:33.967Z,14.00
2022-07-27T22:07:02.185Z,14.00
2022-07-27T22:09:30.321Z,13.90
2022-07-27T22:11:59.824Z,13.90
2022-07-27T22:14:27.956Z,13.80
2022-07-27T22:16:56.672Z,13.70
2022-07-27T22:19:24.830Z,13.60
2022-07-27T22:21:52.987Z,13.60
2022-07-27T22:24:21.131Z,13.60
2022-07-27T22:26:49.942Z,13.60
2022-07-27T22:29:19.446Z,13.50
2022-07-27T22:31:47.650Z,13.50
2022-07-27T22:34:16.289Z,13.40
2022-07-27T22:36:45.112Z,13.40
2022-07-27T22:39:13.979Z,13.30
2022-07-27T22:41:42.138Z,13.30
2022-07-27T22:44:10.564Z,13.30
2022-07-27T22:46:40.367Z,13.20
2022-07-27T22:49:09.504Z,13.20
2022-07-27T22:51:49.674Z,13.20
2022-07-27T22:54:20.698Z,13.10
2022-07-27T22:56:48.859Z,13.10
2022-07-27T22:59:16.994Z,13.00
2022-07-27T23:01:48.155Z,13.00
2022-07-27T23:04:17.939Z,12.90
2022-07-27T23:06:46.609Z,12.90
2022-07-27T23:09:14.859Z,12.90
2022-07-27T23:11:43.039Z,12.80
2022-07-27T23:14:11.513Z,12.80
2022-07-27T23:16:40.080Z,12.80
2022-07-27T23:19:09.645Z,12.70
2022-07-27T23:21:37.873Z,12.70
2022-07-27T23:24:07.090Z,12.70
2022-07-27T23:26:35.230Z,12.60
2022-07-27T23:29:03.352Z,12.60
2022-07-27T23:31:31.626Z,12.50
2022-07-27T23:33:59.850Z,12.40
2022-07-27T23:36:29.350Z,12.40
2022-07-27T23:38:57.477Z,12.40
2022-07-27T23:41:26.306Z,12.30
2022-07-27T23:43:54.422Z,12.30
2022-07-27T23:46:22.573Z,12.20
2022-07-27T23:48:50.769Z,12.20
2022-07-27T23:51:19.075Z,12.10
2022-07-27T23:53:48.808Z,12.10
2022-07-27T23:56:16.947Z,12.10
2022-07-27T23:58:45.960Z,12.10
